sensor_id;sensor_type;location;lat;lon;timestamp;temperature;humidity
1534;DHT22;760;48.822;9.304;2024-03-17T05:06:14;6.40;99.90
1534;DHT22;760;48.822;9.304;2024-03-17T05:08:40;6.40;99.90
1534;DHT22;760;48.822;9.304;2024-03-17T05:11:06;6.30;99.90
1534;DHT22;760;48.822;9.304;2024-03-17T05:13:32;6.30;99.90
1534;DHT22;760;48.822;9.304;2024-03-17T05:16:00;6.30;99.90
1534;DHT22;760;48.822;9.304;2024-03-17T05:18:26;6.20;99.90
1534;DHT22;760;48.822;9.304;2024-03-17T05:21:03;6.20;99.90
1534;DHT22;760;48.822;9.304;2024-03-17T05:23:30;6.20;99.90
1534;DHT22;760;48.822;9.304;2024-03-17T05:25:57;6.20;99.90
1534;DHT22;760;48.822;9.304;2024-03-17T05:28:28;6.20;99.90
1534;DHT22;760;48.822;9.304;2024-03-17T05:30:54;6.20;99.90
1534;DHT22;760;48.822;9.304;2024-03-17T05:33:22;6.20;99.90
1534;DHT22;760;48.822;9.304;2024-03-17T05:35:55;6.20;99.90
1534;DHT22;760;48.822;9.304;2024-03-17T05:38:22;6.20;99.90
1534;DHT22;760;48.822;9.304;2024-03-17T05:40:57;6.20;99.90
1534;DHT22;760;48.822;9.304;2024-03-17T05:43:25;6.30;99.90
1534;DHT22;760;48.822;9.304;2024-03-17T05:45:57;6.30;99.90
1534;DHT22;760;48.822;9.304;2024-03-17T05:48:23;6.30;99.90
1534;DHT22;760;48.822;9.304;2024-03-17T05:50:52;6.40;99.90
1534;DHT22;760;48.822;9.304;2024-03-17T05:53:19;6.40;99.90
1534;DHT22;760;48.822;9.304;2024-03-17T05:55:45;6.40;99.90
1534;DHT22;760;48.822;9.304;2024-03-17T05:58:11;6.40;99.90
1534;DHT22;760;48.822;9.304;2024-03-17T06:00:37;6.40;99.90
1534;DHT22;760;48.822;9.304;2024-03-17T06:03:04;6.40;99.90
1534;DHT22;760;48.822;9.304;2024-03-17T06:05:35;6.50;99.90
1534;DHT22;760;48.822;9.304;2024-03-17T06:08:02;6.50;99.90
1534;DHT22;760;48.822;9.304;2024-03-17T06:10:32;6.60;99.90
1534;DHT22;760;48.822;9.304;2024-03-17T06:12:58;6.60;99.90
1534;DHT22;760;48.822;9.304;2024-03-17T06:15:24;6.60;99.90
1534;DHT22;760;48.822;9.304;2024-03-17T06:17:51;6.60;99.90
1534;DHT22;760;48.822;9.304;2024-03-17T06:20:18;6.60;99.90
1534;DHT22;760;48.822;9.304;2024-03-17T06:22:44;6.60;99.90
1534;DHT22;760;48.822;9.304;2024-03-17T06:25:11;6.60;99.90
1534;DHT22;760;48.822;9.304;2024-03-17T06:27:37;6.60;99.90
1534;DHT22;760;48.822;9.304;2024-03-17T06:30:02;6.60;99.90
1534;DHT22;760;48.822;9.304;2024-03-17T06:32:32;6.60;99.90
1534;DHT22;760;48.822;9.304;2024-03-17T06:35:02;6.50;99.90
1534;DHT22;760;48.822;9.304;2024-03-17T06:37:27;6.50;99.90
1534;DHT22;760;48.822;9.304;2024-03-17T06:39:53;6.60;99.90
1534;DHT22;760;48.822;9.304;2024-03-17T06:42:19;6.70;99.90
1534;DHT22;760;48.822;9.304;2024-03-17T06:44:44;6.80;99.90
1534;DHT22;760;48.822;9.304;2024-03-17T06:47:10;7.00;99.90
1534;DHT22;760;48.822;9.304;2024-03-17T06:49:36;7.10;99.90
1534;DHT22;760;48.822;9.304;2024-03-17T06:52:02;7.20;99.90
1534;DHT22;760;48.822;9.304;2024-03-17T06:54:28;7.40;99.90
1534;DHT22;760;48.822;9.304;2024-03-17T06:56:53;7.50;99.90
1534;DHT22;760;48.822;9.304;2024-03-17T06:59:19;7.70;99.90
1534;DHT22;760;48.822;9.304;2024-03-17T07:01:46;8.00;99.90
1534;DHT22;760;48.822;9.304;2024-03-17T07:04:12;8.30;99.90
1534;DHT22;760;48.822;9.304;2024-03-17T07:06:38;8.50;99.90
1534;DHT22;760;48.822;9.304;2024-03-17T07:09:03;8.60;99.90
1534;DHT22;760;48.822;9.304;2024-03-17T07:11:29;8.70;99.90
1534;DHT22;760;48.822;9.304;2024-03-17T07:13:55;8.80;99.90
1534;DHT22;760;48.822;9.304;2024-03-17T07:16:20;8.90;99.90
1534;DHT22;760;48.822;9.304;2024-03-17T07:18:51;9.00;99.90
1534;DHT22;760;48.822;9.304;2024-03-17T07:21:18;8.90;99.90
1534;DHT22;760;48.822;9.304;2024-03-17T07:23:44;9.00;99.90
1534;DHT22;760;48.822;9.304;2024-03-17T07:26:10;9.10;99.90
1534;DHT22;760;48.822;9.304;2024-03-17T07:28:35;9.10;99.90
1534;DHT22;760;48.822;9.304;2024-03-17T07:31:08;9.20;99.90
1534;DHT22;760;48.822;9.304;2024-03-17T07:33:34;9.20;99.90
1534;DHT22;760;48.822;9.304;2024-03-17T07:35:59;9.30;99.90
1534;DHT22;760;48.822;9.304;2024-03-17T07:38:27;9.20;99.90
1534;DHT22;760;48.822;9.304;2024-03-17T07:41:18;9.20;99.90
1534;DHT22;760;48.822;9.304;2024-03-17T07:43:49;9.30;99.90
1534;DHT22;760;48.822;9.304;2024-03-17T07:46:15;9.50;99.90
1534;DHT22;760;48.822;9.304;2024-03-17T07:48:43;9.70;99.90
1534;DHT22;760;48.822;9.304;2024-03-17T07:51:10;9.80;99.90
1534;DHT22;760;48.822;9.304;2024-03-17T07:53:37;9.90;99.90
1534;DHT22;760;48.822;9.304;2024-03-17T07:56:05;10.00;99.90
1534;DHT22;760;48.822;9.304;2024-03-17T07:58:32;10.40;99.90
1534;DHT22;760;48.822;9.304;2024-03-17T08:03:28;12.20;99.90
1534;DHT22;760;48.822;9.304;2024-03-17T08:05:54;13.10;99.90
1534;DHT22;760;48.822;9.304;2024-03-17T08:08:20;13.80;99.90
1534;DHT22;760;48.822;9.304;2024-03-17T08:10:46;14.20;99.90
1534;DHT22;760;48.822;9.304;2024-03-17T08:13:14;14.50;99.90
1534;DHT22;760;48.822;9.304;2024-03-17T08:15:42;14.50;99.90
1534;DHT22;760;48.822;9.304;2024-03-17T08:18:08;14.40;99.90
1534;DHT22;760;48.822;9.304;2024-03-17T08:20:38;14.30;99.90
1534;DHT22;760;48.822;9.304;2024-03-17T08:23:05;14.10;99.90
1534;DHT22;760;48.822;9.304;2024-03-17T08:25:31;13.80;99.90
1534;DHT22;760;48.822;9.304;2024-03-17T08:27:57;13.40;99.90
1534;DHT22;760;48.822;9.304;2024-03-17T08:30:23;13.00;99.90
1534;DHT22;760;48.822;9.304;2024-03-17T08:32:48;12.90;99.90
1534;DHT22;760;48.822;9.304;2024-03-17T08:35:14;12.80;99.90
1534;DHT22;760;48.822;9.304;2024-03-17T08:37:40;12.80;99.90
1534;DHT22;760;48.822;9.304;2024-03-17T08:40:06;12.60;99.90
1534;DHT22;760;48.822;9.304;2024-03-17T08:42:32;12.70;99.90
1534;DHT22;760;48.822;9.304;2024-03-17T08:44:58;12.70;99.90
1534;DHT22;760;48.822;9.304;2024-03-17T08:47:24;12.70;99.90
1534;DHT22;760;48.822;9.304;2024-03-17T08:49:52;12.70;99.90
1534;DHT22;760;48.822;9.304;2024-03-17T08:52:18;12.90;99.90
1534;DHT22;760;48.822;9.304;2024-03-17T08:54:47;13.10;99.90
1534;DHT22;760;48.822;9.304;2024-03-17T08:57:13;13.30;99.90
1534;DHT22;760;48.822;9.304;2024-03-17T08:59:39;13.30;99.90
1534;DHT22;760;48.822;9.304;2024-03-17T09:02:05;13.40;99.90
1534;DHT22;760;48.822;9.304;2024-03-17T09:04:36;13.40;99.90
1534;DHT22;760;48.822;9.304;2024-03-17T09:07:02;13.50;99.90
1534;DHT22;760;48.822;9.304;2024-03-17T09:09:29;13.90;99.90
1534;DHT22;760;48.822;9.304;2024-03-17T09:11:55;14.50;99.90
1534;DHT22;760;48.822;9.304;2024-03-17T09:14:20;15.00;99.90
1534;DHT22;760;48.822;9.304;2024-03-17T09:16:47;15.50;99.90
1534;DHT22;760;48.822;9.304;2024-03-17T09:19:13;15.80;99.90
1534;DHT22;760;48.822;9.304;2024-03-17T09:21:38;16.00;99.90
1534;DHT22;760;48.822;9.304;2024-03-17T09:24:06;16.50;99.90
1534;DHT22;760;48.822;9.304;2024-03-17T09:26:33;16.60;99.90
1534;DHT22;760;48.822;9.304;2024-03-17T09:29:05;16.90;99.90
1534;DHT22;760;48.822;9.304;2024-03-17T09:31:31;17.20;99.90
1534;DHT22;760;48.822;9.304;2024-03-17T09:33:59;17.60;99.90
1534;DHT22;760;48.822;9.304;2024-03-17T09:36:24;17.90;99.90
1534;DHT22;760;48.822;9.304;2024-03-17T09:38:51;17.90;99.90
1534;DHT22;760;48.822;9.304;2024-03-17T09:41:24;18.00;99.90
1534;DHT22;760;48.822;9.304;2024-03-17T09:43:53;18.00;99.60
1534;DHT22;760;48.822;9.304;2024-03-17T09:46:19;17.70;99.50
1534;DHT22;760;48.822;9.304;2024-03-17T09:48:46;17.30;99.90
1534;DHT22;760;48.822;9.304;2024-03-17T09:51:19;17.20;99.90
1534;DHT22;760;48.822;9.304;2024-03-17T09:53:46;17.10;99.90
1534;DHT22;760;48.822;9.304;2024-03-17T09:56:16;17.10;99.90
1534;DHT22;760;48.822;9.304;2024-03-17T09:58:44;17.30;99.90
1534;DHT22;760;48.822;9.304;2024-03-17T10:01:10;17.50;99.90
1534;DHT22;760;48.822;9.304;2024-03-17T10:06:09;17.40;97.10
1534;DHT22;760;48.822;9.304;2024-03-17T10:08:45;17.40;98.50
1534;DHT22;760;48.822;9.304;2024-03-17T10:11:12;17.50;99.10
1534;DHT22;760;48.822;9.304;2024-03-17T10:13:39;17.70;98.00
1534;DHT22;760;48.822;9.304;2024-03-17T10:16:05;17.80;97.30
1534;DHT22;760;48.822;9.304;2024-03-17T10:18:31;17.70;97.60
1534;DHT22;760;48.822;9.304;2024-03-17T10:20:57;17.80;97.20
1534;DHT22;760;48.822;9.304;2024-03-17T10:23:24;17.90;96.80
1534;DHT22;760;48.822;9.304;2024-03-17T10:25:50;18.00;95.50
1534;DHT22;760;48.822;9.304;2024-03-17T10:28:17;18.20;95.90
1534;DHT22;760;48.822;9.304;2024-03-17T10:30:58;18.30;94.40
1534;DHT22;760;48.822;9.304;2024-03-17T10:33:25;18.10;93.60
1534;DHT22;760;48.822;9.304;2024-03-17T10:35:58;17.90;94.30
1534;DHT22;760;48.822;9.304;2024-03-17T10:38:25;17.90;94.20
1534;DHT22;760;48.822;9.304;2024-03-17T10:40:52;17.90;94.90
1534;DHT22;760;48.822;9.304;2024-03-17T10:43:17;17.80;94.10
1534;DHT22;760;48.822;9.304;2024-03-17T10:45:43;17.90;94.60
1534;DHT22;760;48.822;9.304;2024-03-17T10:48:12;17.90;95.00
1534;DHT22;760;48.822;9.304;2024-03-17T10:50:42;17.70;94.80
1534;DHT22;760;48.822;9.304;2024-03-17T10:53:09;17.70;95.70
1534;DHT22;760;48.822;9.304;2024-03-17T10:55:44;17.80;94.50
1534;DHT22;760;48.822;9.304;2024-03-17T11:00:50;18.00;92.80
1534;DHT22;760;48.822;9.304;2024-03-17T11:03:18;17.90;92.00
1534;DHT22;760;48.822;9.304;2024-03-17T11:05:44;17.80;93.90
1534;DHT22;760;48.822;9.304;2024-03-17T11:08:16;17.70;95.70
1534;DHT22;760;48.822;9.304;2024-03-17T11:10:49;18.00;96.40
1534;DHT22;760;48.822;9.304;2024-03-17T11:13:26;18.20;96.00
1534;DHT22;760;48.822;9.304;2024-03-17T11:15:53;18.50;94.00
1534;DHT22;760;48.822;9.304;2024-03-17T11:21:07;18.80;95.10
1534;DHT22;760;48.822;9.304;2024-03-17T11:23:41;18.80;94.50
1534;DHT22;760;48.822;9.304;2024-03-17T11:26:08;18.70;93.30
1534;DHT22;760;48.822;9.304;2024-03-17T11:31:35;18.10;94.60
1534;DHT22;760;48.822;9.304;2024-03-17T11:34:01;17.90;93.80
1534;DHT22;760;48.822;9.304;2024-03-17T11:41:40;17.50;95.10
1534;DHT22;760;48.822;9.304;2024-03-17T11:44:33;17.30;96.30
1534;DHT22;760;48.822;9.304;2024-03-17T11:47:03;17.20;95.80
1534;DHT22;760;48.822;9.304;2024-03-17T11:49:40;17.10;95.60
1534;DHT22;760;48.822;9.304;2024-03-17T11:52:16;16.90;95.80
1534;DHT22;760;48.822;9.304;2024-03-17T11:54:46;16.80;96.00
1534;DHT22;760;48.822;9.304;2024-03-17T11:57:21;16.80;95.90
1534;DHT22;760;48.822;9.304;2024-03-17T11:59:50;16.80;96.10
1534;DHT22;760;48.822;9.304;2024-03-17T12:02:19;16.90;97.00
1534;DHT22;760;48.822;9.304;2024-03-17T12:04:45;16.90;96.80
1534;DHT22;760;48.822;9.304;2024-03-17T12:07:13;16.90;96.20
1534;DHT22;760;48.822;9.304;2024-03-17T12:09:41;16.90;95.20
1534;DHT22;760;48.822;9.304;2024-03-17T12:12:20;16.90;95.40
1534;DHT22;760;48.822;9.304;2024-03-17T12:14:47;16.90;95.70
1534;DHT22;760;48.822;9.304;2024-03-17T12:17:15;16.80;95.10
1534;DHT22;760;48.822;9.304;2024-03-17T12:19:43;16.80;96.00
1534;DHT22;760;48.822;9.304;2024-03-17T12:22:23;16.80;95.50
1534;DHT22;760;48.822;9.304;2024-03-17T12:24:55;16.80;95.40
1534;DHT22;760;48.822;9.304;2024-03-17T12:27:23;16.90;95.10
1534;DHT22;760;48.822;9.304;2024-03-17T12:29:50;17.00;94.90
1534;DHT22;760;48.822;9.304;2024-03-17T12:32:24;17.00;94.60
1534;DHT22;760;48.822;9.304;2024-03-17T12:34:57;17.00;94.80
1534;DHT22;760;48.822;9.304;2024-03-17T12:37:25;17.10;94.20
1534;DHT22;760;48.822;9.304;2024-03-17T12:39:53;17.10;94.20
1534;DHT22;760;48.822;9.304;2024-03-17T12:42:28;17.00;94.60
1534;DHT22;760;48.822;9.304;2024-03-17T12:44:58;17.00;95.00
1534;DHT22;760;48.822;9.304;2024-03-17T12:47:28;17.10;95.80
1534;DHT22;760;48.822;9.304;2024-03-17T12:49:55;17.10;95.40
1534;DHT22;760;48.822;9.304;2024-03-17T12:52:22;16.90;94.60
1534;DHT22;760;48.822;9.304;2024-03-17T12:54:58;16.70;95.30
1534;DHT22;760;48.822;9.304;2024-03-17T12:57:42;16.40;95.00
1534;DHT22;760;48.822;9.304;2024-03-17T13:00:26;16.20;95.50
1534;DHT22;760;48.822;9.304;2024-03-17T13:03:02;16.30;95.90
1534;DHT22;760;48.822;9.304;2024-03-17T13:05:29;16.40;96.40
1534;DHT22;760;48.822;9.304;2024-03-17T13:07:55;16.40;95.80
1534;DHT22;760;48.822;9.304;2024-03-17T13:10:24;16.60;96.00
1534;DHT22;760;48.822;9.304;2024-03-17T13:12:59;16.70;95.90
1534;DHT22;760;48.822;9.304;2024-03-17T13:15:26;16.60;94.80
1534;DHT22;760;48.822;9.304;2024-03-17T13:17:52;16.50;95.40
1534;DHT22;760;48.822;9.304;2024-03-17T13:20:18;16.40;95.20
1534;DHT22;760;48.822;9.304;2024-03-17T13:22:45;16.30;95.00
1534;DHT22;760;48.822;9.304;2024-03-17T13:25:15;16.30;95.40
1534;DHT22;760;48.822;9.304;2024-03-17T13:27:42;16.20;95.60
1534;DHT22;760;48.822;9.304;2024-03-17T13:30:08;16.20;95.50
1534;DHT22;760;48.822;9.304;2024-03-17T13:32:35;16.10;96.00
1534;DHT22;760;48.822;9.304;2024-03-17T13:35:01;16.00;95.80
1534;DHT22;760;48.822;9.304;2024-03-17T13:37:28;16.10;95.60
1534;DHT22;760;48.822;9.304;2024-03-17T13:39:53;16.00;95.20
1534;DHT22;760;48.822;9.304;2024-03-17T13:42:19;16.10;95.70
1534;DHT22;760;48.822;9.304;2024-03-17T13:44:45;16.20;95.90
1534;DHT22;760;48.822;9.304;2024-03-17T13:47:12;16.30;95.60
1534;DHT22;760;48.822;9.304;2024-03-17T13:49:39;16.40;95.60
1534;DHT22;760;48.822;9.304;2024-03-17T13:52:05;16.30;95.90
1534;DHT22;760;48.822;9.304;2024-03-17T13:54:30;16.40;95.80
1534;DHT22;760;48.822;9.304;2024-03-17T13:56:57;16.30;95.50
1534;DHT22;760;48.822;9.304;2024-03-17T13:59:23;16.20;95.60
1534;DHT22;760;48.822;9.304;2024-03-17T14:01:50;16.30;95.70
1534;DHT22;760;48.822;9.304;2024-03-17T14:04:17;16.30;95.70
1534;DHT22;760;48.822;9.304;2024-03-17T14:06:46;16.30;95.30
1534;DHT22;760;48.822;9.304;2024-03-17T14:09:15;16.30;95.10
1534;DHT22;760;48.822;9.304;2024-03-17T14:11:43;16.30;95.20
1534;DHT22;760;48.822;9.304;2024-03-17T14:14:12;16.40;95.00
1534;DHT22;760;48.822;9.304;2024-03-17T14:16:38;16.50;94.90
1534;DHT22;760;48.822;9.304;2024-03-17T14:19:05;16.50;94.80
1534;DHT22;760;48.822;9.304;2024-03-17T14:21:31;16.50;94.90
1534;DHT22;760;48.822;9.304;2024-03-17T14:23:57;16.50;94.60
1534;DHT22;760;48.822;9.304;2024-03-17T14:26:23;16.40;95.30
1534;DHT22;760;48.822;9.304;2024-03-17T14:28:49;16.30;95.50
1534;DHT22;760;48.822;9.304;2024-03-17T14:31:16;16.20;95.60
1534;DHT22;760;48.822;9.304;2024-03-17T14:33:43;16.30;95.50
1534;DHT22;760;48.822;9.304;2024-03-17T14:36:09;16.30;95.40
1534;DHT22;760;48.822;9.304;2024-03-17T14:38:35;16.40;94.90
1534;DHT22;760;48.822;9.304;2024-03-17T14:41:00;16.40;94.50
1534;DHT22;760;48.822;9.304;2024-03-17T14:43:27;16.40;94.30
1534;DHT22;760;48.822;9.304;2024-03-17T14:45:52;16.50;95.00
1534;DHT22;760;48.822;9.304;2024-03-17T14:48:19;16.50;94.70
1534;DHT22;760;48.822;9.304;2024-03-17T14:50:44;16.50;94.70
1534;DHT22;760;48.822;9.304;2024-03-17T14:53:10;16.50;94.80
1534;DHT22;760;48.822;9.304;2024-03-17T14:55:35;16.40;95.00
1534;DHT22;760;48.822;9.304;2024-03-17T14:58:01;16.40;95.10
1534;DHT22;760;48.822;9.304;2024-03-17T15:00:28;16.30;95.10
1534;DHT22;760;48.822;9.304;2024-03-17T15:02:56;16.40;94.80
1534;DHT22;760;48.822;9.304;2024-03-17T15:05:22;16.30;94.90
1534;DHT22;760;48.822;9.304;2024-03-17T15:07:49;16.30;95.40
1534;DHT22;760;48.822;9.304;2024-03-17T15:10:15;16.20;95.70
1534;DHT22;760;48.822;9.304;2024-03-17T15:12:43;16.20;95.50
1534;DHT22;760;48.822;9.304;2024-03-17T15:15:10;16.10;95.00
1534;DHT22;760;48.822;9.304;2024-03-17T15:17:36;16.00;95.20
1534;DHT22;760;48.822;9.304;2024-03-17T15:20:01;15.90;95.10
1534;DHT22;760;48.822;9.304;2024-03-17T15:22:33;15.80;95.00
1534;DHT22;760;48.822;9.304;2024-03-17T15:24:59;15.70;95.30
1534;DHT22;760;48.822;9.304;2024-03-17T15:27:25;15.60;96.40
1534;DHT22;760;48.822;9.304;2024-03-17T15:29:50;15.60;96.20
1534;DHT22;760;48.822;9.304;2024-03-17T15:32:17;15.60;95.90
1534;DHT22;760;48.822;9.304;2024-03-17T15:34:43;15.60;95.70
1534;DHT22;760;48.822;9.304;2024-03-17T15:37:09;15.60;95.70
1534;DHT22;760;48.822;9.304;2024-03-17T15:39:34;15.70;95.70
1534;DHT22;760;48.822;9.304;2024-03-17T15:42:00;15.60;96.20
1534;DHT22;760;48.822;9.304;2024-03-17T15:44:27;15.60;96.40
1534;DHT22;760;48.822;9.304;2024-03-17T15:46:53;15.50;96.20
1534;DHT22;760;48.822;9.304;2024-03-17T15:49:18;15.40;96.20
1534;DHT22;760;48.822;9.304;2024-03-17T15:51:44;15.30;96.40
1534;DHT22;760;48.822;9.304;2024-03-17T15:54:09;15.20;96.90
1534;DHT22;760;48.822;9.304;2024-03-17T15:56:35;15.10;96.80
1534;DHT22;760;48.822;9.304;2024-03-17T15:59:00;15.00;97.30
1534;DHT22;760;48.822;9.304;2024-03-17T16:01:27;15.00;97.20
1534;DHT22;760;48.822;9.304;2024-03-17T16:03:53;14.90;97.20
1534;DHT22;760;48.822;9.304;2024-03-17T16:06:19;14.90;97.50
1534;DHT22;760;48.822;9.304;2024-03-17T16:08:48;14.80;97.90
1534;DHT22;760;48.822;9.304;2024-03-17T16:11:23;14.60;98.10
1534;DHT22;760;48.822;9.304;2024-03-17T16:13:54;14.50;98.50
1534;DHT22;760;48.822;9.304;2024-03-17T16:16:21;14.30;98.50
1534;DHT22;760;48.822;9.304;2024-03-17T16:18:50;14.20;98.60
1534;DHT22;760;48.822;9.304;2024-03-17T16:21:19;14.20;98.60
1534;DHT22;760;48.822;9.304;2024-03-17T16:24:10;14.20;98.90
1534;DHT22;760;48.822;9.304;2024-03-17T16:26:36;14.10;99.10
1534;DHT22;760;48.822;9.304;2024-03-17T16:29:03;14.10;99.10
1534;DHT22;760;48.822;9.304;2024-03-17T16:31:31;14.00;98.80
1534;DHT22;760;48.822;9.304;2024-03-17T16:33:56;14.00;98.70
1534;DHT22;760;48.822;9.304;2024-03-17T16:36:25;14.00;98.80
1534;DHT22;760;48.822;9.304;2024-03-17T16:38:52;13.90;99.10
1534;DHT22;760;48.822;9.304;2024-03-17T16:41:17;13.90;99.40
1534;DHT22;760;48.822;9.304;2024-03-17T16:49:11;13.70;99.50
1534;DHT22;760;48.822;9.304;2024-03-17T16:51:39;13.70;99.50
1534;DHT22;760;48.822;9.304;2024-03-17T16:54:05;13.70;99.70
1534;DHT22;760;48.822;9.304;2024-03-17T16:56:30;13.70;99.80
1534;DHT22;760;48.822;9.304;2024-03-17T16:58:57;13.60;99.80
1534;DHT22;760;48.822;9.304;2024-03-17T17:01:23;13.60;99.90
1534;DHT22;760;48.822;9.304;2024-03-17T17:03:50;13.60;99.90
1534;DHT22;760;48.822;9.304;2024-03-17T17:06:16;13.60;99.90
1534;DHT22;760;48.822;9.304;2024-03-17T17:08:41;13.60;99.90
1534;DHT22;760;48.822;9.304;2024-03-17T17:11:16;13.50;99.90
1534;DHT22;760;48.822;9.304;2024-03-17T17:13:45;13.50;99.90
1534;DHT22;760;48.822;9.304;2024-03-17T17:16:12;13.50;99.90
1534;DHT22;760;48.822;9.304;2024-03-17T17:18:50;13.50;99.90
1534;DHT22;760;48.822;9.304;2024-03-17T17:21:24;13.50;99.90
1534;DHT22;760;48.822;9.304;2024-03-17T17:23:50;13.40;99.90
1534;DHT22;760;48.822;9.304;2024-03-17T17:26:20;13.40;99.90
1534;DHT22;760;48.822;9.304;2024-03-17T17:28:47;13.40;99.90
1534;DHT22;760;48.822;9.304;2024-03-17T17:31:18;13.40;99.90
1534;DHT22;760;48.822;9.304;2024-03-17T17:33:43;13.30;99.90
1534;DHT22;760;48.822;9.304;2024-03-17T17:36:09;13.30;99.90
1534;DHT22;760;48.822;9.304;2024-03-17T17:38:38;13.30;99.90
1534;DHT22;760;48.822;9.304;2024-03-17T17:41:04;13.30;99.90
1534;DHT22;760;48.822;9.304;2024-03-17T17:43:51;13.20;99.90
1534;DHT22;760;48.822;9.304;2024-03-17T17:46:18;13.20;99.90
1534;DHT22;760;48.822;9.304;2024-03-17T17:48:45;13.20;99.90
1534;DHT22;760;48.822;9.304;2024-03-17T17:51:12;13.10;99.90
1534;DHT22;760;48.822;9.304;2024-03-17T17:53:42;13.10;99.90
1534;DHT22;760;48.822;9.304;2024-03-17T17:56:08;13.10;99.90
1534;DHT22;760;48.822;9.304;2024-03-17T17:58:35;13.10;99.90
1534;DHT22;760;48.822;9.304;2024-03-17T18:01:03;13.10;99.90
1534;DHT22;760;48.822;9.304;2024-03-17T18:03:29;13.00;99.90
1534;DHT22;760;48.822;9.304;2024-03-17T18:05:55;13.00;99.90
1534;DHT22;760;48.822;9.304;2024-03-17T18:08:26;13.00;99.90
1534;DHT22;760;48.822;9.304;2024-03-17T18:10:52;12.90;99.90
1534;DHT22;760;48.822;9.304;2024-03-17T18:13:20;12.90;99.90
1534;DHT22;760;48.822;9.304;2024-03-17T18:15:46;12.80;99.90
1534;DHT22;760;48.822;9.304;2024-03-17T18:18:13;12.80;99.90
1534;DHT22;760;48.822;9.304;2024-03-17T18:20:39;12.80;99.90
1534;DHT22;760;48.822;9.304;2024-03-17T18:23:05;12.90;99.90
1534;DHT22;760;48.822;9.304;2024-03-17T18:25:32;12.90;99.90
1534;DHT22;760;48.822;9.304;2024-03-17T18:28:02;12.90;99.90
1534;DHT22;760;48.822;9.304;2024-03-17T18:30:28;12.80;99.90
1534;DHT22;760;48.822;9.304;2024-03-17T18:32:54;12.80;99.90
1534;DHT22;760;48.822;9.304;2024-03-17T18:35:26;12.80;99.90
1534;DHT22;760;48.822;9.304;2024-03-17T18:37:53;12.80;99.90
1534;DHT22;760;48.822;9.304;2024-03-17T18:40:19;12.80;99.90
1534;DHT22;760;48.822;9.304;2024-03-17T18:42:47;12.70;99.90
1534;DHT22;760;48.822;9.304;2024-03-17T18:45:24;12.70;99.90
1534;DHT22;760;48.822;9.304;2024-03-17T18:47:51;12.70;99.90
1534;DHT22;760;48.822;9.304;2024-03-17T18:50:17;12.70;99.90
1534;DHT22;760;48.822;9.304;2024-03-17T18:52:44;12.60;99.90
1534;DHT22;760;48.822;9.304;2024-03-17T18:55:16;12.60;99.90
1534;DHT22;760;48.822;9.304;2024-03-17T18:57:43;12.70;99.90
1534;DHT22;760;48.822;9.304;2024-03-17T19:00:11;12.60;99.90
1534;DHT22;760;48.822;9.304;2024-03-17T19:02:48;12.60;99.90
1534;DHT22;760;48.822;9.304;2024-03-17T19:05:14;12.60;99.90
1534;DHT22;760;48.822;9.304;2024-03-17T19:07:42;12.50;99.90
1534;DHT22;760;48.822;9.304;2024-03-17T19:10:08;12.50;99.90
1534;DHT22;760;48.822;9.304;2024-03-17T19:12:35;12.50;99.90
1534;DHT22;760;48.822;9.304;2024-03-17T19:15:03;12.50;99.90
1534;DHT22;760;48.822;9.304;2024-03-17T19:17:32;12.40;99.90
1534;DHT22;760;48.822;9.304;2024-03-17T19:19:59;12.30;99.90
1534;DHT22;760;48.822;9.304;2024-03-17T19:22:24;12.30;99.90
1534;DHT22;760;48.822;9.304;2024-03-17T19:24:54;12.30;99.90
1534;DHT22;760;48.822;9.304;2024-03-17T19:27:20;12.30;99.90
1534;DHT22;760;48.822;9.304;2024-03-17T19:29:47;12.30;99.90
1534;DHT22;760;48.822;9.304;2024-03-17T19:32:12;12.30;99.90
1534;DHT22;760;48.822;9.304;2024-03-17T19:34:38;12.30;99.90
1534;DHT22;760;48.822;9.304;2024-03-17T19:37:05;12.30;99.90
1534;DHT22;760;48.822;9.304;2024-03-17T19:39:31;12.30;99.90
1534;DHT22;760;48.822;9.304;2024-03-17T19:41:57;12.30;99.90
1534;DHT22;760;48.822;9.304;2024-03-17T19:44:22;12.30;99.90
1534;DHT22;760;48.822;9.304;2024-03-17T19:46:48;12.20;99.90
1534;DHT22;760;48.822;9.304;2024-03-17T19:49:14;12.30;99.90
1534;DHT22;760;48.822;9.304;2024-03-17T19:51:39;12.20;99.90
1534;DHT22;760;48.822;9.304;2024-03-17T19:54:05;12.20;99.90
1534;DHT22;760;48.822;9.304;2024-03-17T19:56:32;12.10;99.90
1534;DHT22;760;48.822;9.304;2024-03-17T19:58:58;12.10;99.90
1534;DHT22;760;48.822;9.304;2024-03-17T20:01:24;12.10;99.90
1534;DHT22;760;48.822;9.304;2024-03-17T20:03:51;12.00;99.90
1534;DHT22;760;48.822;9.304;2024-03-17T20:06:24;12.00;99.90
1534;DHT22;760;48.822;9.304;2024-03-17T20:08:52;12.00;99.90
1534;DHT22;760;48.822;9.304;2024-03-17T20:11:19;12.00;99.90
1534;DHT22;760;48.822;9.304;2024-03-17T20:13:53;11.90;99.90
1534;DHT22;760;48.822;9.304;2024-03-17T20:16:21;11.90;99.90
1534;DHT22;760;48.822;9.304;2024-03-17T20:18:54;11.90;99.90
1534;DHT22;760;48.822;9.304;2024-03-17T20:21:24;11.80;99.90
1534;DHT22;760;48.822;9.304;2024-03-17T20:23:50;11.70;99.90
1534;DHT22;760;48.822;9.304;2024-03-17T20:26:17;11.70;99.90
1534;DHT22;760;48.822;9.304;2024-03-17T20:28:43;11.70;99.90
1534;DHT22;760;48.822;9.304;2024-03-17T20:31:16;11.70;99.90
1534;DHT22;760;48.822;9.304;2024-03-17T20:33:42;11.60;99.90
1534;DHT22;760;48.822;9.304;2024-03-17T20:36:10;11.60;99.90
1534;DHT22;760;48.822;9.304;2024-03-17T20:38:36;11.60;99.90
1534;DHT22;760;48.822;9.304;2024-03-17T20:41:04;11.50;99.90
1534;DHT22;760;48.822;9.304;2024-03-17T20:43:32;11.50;99.90
1534;DHT22;760;48.822;9.304;2024-03-17T20:46:02;11.50;99.90
1534;DHT22;760;48.822;9.304;2024-03-17T20:48:31;11.40;99.90
1534;DHT22;760;48.822;9.304;2024-03-17T20:50:57;11.40;99.90
1534;DHT22;760;48.822;9.304;2024-03-17T20:53:23;11.30;99.90
1534;DHT22;760;48.822;9.304;2024-03-17T20:55:51;11.30;99.90
1534;DHT22;760;48.822;9.304;2024-03-17T20:58:17;11.30;99.90
1534;DHT22;760;48.822;9.304;2024-03-17T21:00:44;11.20;99.90
1534;DHT22;760;48.822;9.304;2024-03-17T21:03:14;11.30;99.90
1534;DHT22;760;48.822;9.304;2024-03-17T21:05:39;11.20;99.90
1534;DHT22;760;48.822;9.304;2024-03-17T21:08:05;11.20;99.90
1534;DHT22;760;48.822;9.304;2024-03-17T21:10:31;11.20;99.90
1534;DHT22;760;48.822;9.304;2024-03-17T21:12:57;11.20;99.90
1534;DHT22;760;48.822;9.304;2024-03-17T21:15:25;11.30;99.90
1534;DHT22;760;48.822;9.304;2024-03-17T21:17:51;11.30;99.90
1534;DHT22;760;48.822;9.304;2024-03-17T21:20:17;11.20;99.90
1534;DHT22;760;48.822;9.304;2024-03-17T21:22:47;11.20;99.90
1534;DHT22;760;48.822;9.304;2024-03-17T21:25:16;11.20;99.90
1534;DHT22;760;48.822;9.304;2024-03-17T21:27:42;11.20;99.90
1534;DHT22;760;48.822;9.304;2024-03-17T21:30:15;11.20;99.90
1534;DHT22;760;48.822;9.304;2024-03-17T21:32:42;11.20;99.90
1534;DHT22;760;48.822;9.304;2024-03-17T21:35:09;11.10;99.90
1534;DHT22;760;48.822;9.304;2024-03-17T21:37:35;11.10;99.90
1534;DHT22;760;48.822;9.304;2024-03-17T21:40:04;11.10;99.90
1534;DHT22;760;48.822;9.304;2024-03-17T21:42:33;11.10;99.90
1534;DHT22;760;48.822;9.304;2024-03-17T21:44:59;11.10;99.90
1534;DHT22;760;48.822;9.304;2024-03-17T21:47:27;11.10;99.90
1534;DHT22;760;48.822;9.304;2024-03-17T21:49:52;11.10;99.90
1534;DHT22;760;48.822;9.304;2024-03-17T21:52:24;11.10;99.90